sensor_id;sensor_type;location;lat;lon;timestamp;temperature;humidity
15115;DHT22;7658;51.456;7.622;2024-03-25T00:00:47;5.40;99.90
15115;DHT22;7658;51.456;7.622;2024-03-25T00:03:12;5.40;99.90
15115;DHT22;7658;51.456;7.622;2024-03-25T00:05:39;5.30;99.90
15115;DHT22;7658;51.456;7.622;2024-03-25T00:08:05;5.40;99.90
15115;DHT22;7658;51.456;7.622;2024-03-25T00:10:30;5.30;99.90
15115;DHT22;7658;51.456;7.622;2024-03-25T00:12:56;5.40;99.90
15115;DHT22;7658;51.456;7.622;2024-03-25T00:15:22;5.40;99.90
15115;DHT22;7658;51.456;7.622;2024-03-25T00:17:49;5.30;99.90
15115;DHT22;7658;51.456;7.622;2024-03-25T00:20:15;5.40;99.90
15115;DHT22;7658;51.456;7.622;2024-03-25T00:22:41;5.40;99.90
15115;DHT22;7658;51.456;7.622;2024-03-25T00:25:07;5.40;99.90
15115;DHT22;7658;51.456;7.622;2024-03-25T00:27:34;5.30;99.90
15115;DHT22;7658;51.456;7.622;2024-03-25T00:30:00;5.30;99.90
15115;DHT22;7658;51.456;7.622;2024-03-25T00:32:25;5.40;99.90
15115;DHT22;7658;51.456;7.622;2024-03-25T00:34:51;5.30;99.90
15115;DHT22;7658;51.456;7.622;2024-03-25T00:37:17;5.40;99.90
15115;DHT22;7658;51.456;7.622;2024-03-25T00:39:43;5.30;99.90
15115;DHT22;7658;51.456;7.622;2024-03-25T00:42:09;5.30;99.90
15115;DHT22;7658;51.456;7.622;2024-03-25T00:44:34;5.30;99.90
15115;DHT22;7658;51.456;7.622;2024-03-25T00:47:02;5.30;99.90
15115;DHT22;7658;51.456;7.622;2024-03-25T00:49:27;5.30;99.90
15115;DHT22;7658;51.456;7.622;2024-03-25T00:51:54;5.30;99.90
15115;DHT22;7658;51.456;7.622;2024-03-25T00:54:19;5.20;99.90
15115;DHT22;7658;51.456;7.622;2024-03-25T00:56:45;5.20;99.90
15115;DHT22;7658;51.456;7.622;2024-03-25T00:59:12;5.10;99.90
15115;DHT22;7658;51.456;7.622;2024-03-25T01:01:37;5.10;99.90
15115;DHT22;7658;51.456;7.622;2024-03-25T01:04:03;5.10;99.90
15115;DHT22;7658;51.456;7.622;2024-03-25T01:06:29;5.10;99.90
15115;DHT22;7658;51.456;7.622;2024-03-25T01:08:55;5.00;99.90
15115;DHT22;7658;51.456;7.622;2024-03-25T01:11:21;5.00;99.90
15115;DHT22;7658;51.456;7.622;2024-03-25T01:13:48;5.10;99.90
15115;DHT22;7658;51.456;7.622;2024-03-25T01:16:14;5.10;99.90
15115;DHT22;7658;51.456;7.622;2024-03-25T01:18:39;5.00;99.90
15115;DHT22;7658;51.456;7.622;2024-03-25T01:21:05;5.00;99.90
15115;DHT22;7658;51.456;7.622;2024-03-25T01:23:31;5.00;99.90
15115;DHT22;7658;51.456;7.622;2024-03-25T01:25:57;5.00;99.90
15115;DHT22;7658;51.456;7.622;2024-03-25T01:28:23;5.00;99.90
15115;DHT22;7658;51.456;7.622;2024-03-25T01:30:49;5.00;99.90
15115;DHT22;7658;51.456;7.622;2024-03-25T01:33:15;5.00;99.90
15115;DHT22;7658;51.456;7.622;2024-03-25T01:35:41;5.00;99.90
15115;DHT22;7658;51.456;7.622;2024-03-25T01:38:06;5.00;99.90
15115;DHT22;7658;51.456;7.622;2024-03-25T01:40:33;4.90;99.90
15115;DHT22;7658;51.456;7.622;2024-03-25T01:43:03;4.90;99.90
15115;DHT22;7658;51.456;7.622;2024-03-25T01:45:31;4.90;99.90
15115;DHT22;7658;51.456;7.622;2024-03-25T01:47:59;4.80;99.90
15115;DHT22;7658;51.456;7.622;2024-03-25T01:50:27;4.80;99.90
15115;DHT22;7658;51.456;7.622;2024-03-25T01:52:53;4.80;99.90
15115;DHT22;7658;51.456;7.622;2024-03-25T01:55:28;4.80;99.90
15115;DHT22;7658;51.456;7.622;2024-03-25T01:57:56;4.80;99.90
15115;DHT22;7658;51.456;7.622;2024-03-25T02:00:23;4.80;99.90
15115;DHT22;7658;51.456;7.622;2024-03-25T02:02:50;4.80;99.90
15115;DHT22;7658;51.456;7.622;2024-03-25T02:05:18;4.80;99.90
15115;DHT22;7658;51.456;7.622;2024-03-25T02:07:44;4.70;99.90
15115;DHT22;7658;51.456;7.622;2024-03-25T02:10:11;4.80;99.90
15115;DHT22;7658;51.456;7.622;2024-03-25T02:12:45;4.70;99.90
15115;DHT22;7658;51.456;7.622;2024-03-25T02:15:12;4.70;99.90
15115;DHT22;7658;51.456;7.622;2024-03-25T02:17:41;4.70;99.90
15115;DHT22;7658;51.456;7.622;2024-03-25T02:20:08;4.70;99.90
15115;DHT22;7658;51.456;7.622;2024-03-25T02:22:34;4.70;99.90
15115;DHT22;7658;51.456;7.622;2024-03-25T02:25:07;4.70;99.90
15115;DHT22;7658;51.456;7.622;2024-03-25T02:27:37;4.70;99.90
15115;DHT22;7658;51.456;7.622;2024-03-25T02:32:31;4.70;99.90
15115;DHT22;7658;51.456;7.622;2024-03-25T02:34:57;4.60;99.90
15115;DHT22;7658;51.456;7.622;2024-03-25T02:37:25;4.60;99.90
15115;DHT22;7658;51.456;7.622;2024-03-25T02:39:52;4.60;99.90
15115;DHT22;7658;51.456;7.622;2024-03-25T02:42:18;4.60;99.90
15115;DHT22;7658;51.456;7.622;2024-03-25T02:44:45;4.60;99.90
15115;DHT22;7658;51.456;7.622;2024-03-25T02:47:11;4.60;99.90
15115;DHT22;7658;51.456;7.622;2024-03-25T02:49:37;4.60;99.90
15115;DHT22;7658;51.456;7.622;2024-03-25T02:52:03;4.60;99.90
15115;DHT22;7658;51.456;7.622;2024-03-25T02:54:29;4.60;99.90
15115;DHT22;7658;51.456;7.622;2024-03-25T02:57:07;4.60;99.90
15115;DHT22;7658;51.456;7.622;2024-03-25T02:59:33;4.70;99.90
15115;DHT22;7658;51.456;7.622;2024-03-25T03:01:58;4.60;99.90
15115;DHT22;7658;51.456;7.622;2024-03-25T03:04:24;4.60;99.90
15115;DHT22;7658;51.456;7.622;2024-03-25T03:06:50;4.60;99.90
15115;DHT22;7658;51.456;7.622;2024-03-25T03:09:16;4.60;99.90
15115;DHT22;7658;51.456;7.622;2024-03-25T03:11:41;4.60;99.90
15115;DHT22;7658;51.456;7.622;2024-03-25T03:14:08;4.60;99.90
15115;DHT22;7658;51.456;7.622;2024-03-25T03:16:34;4.60;99.90
15115;DHT22;7658;51.456;7.622;2024-03-25T03:19:00;4.60;99.90
15115;DHT22;7658;51.456;7.622;2024-03-25T03:21:26;4.60;99.90
15115;DHT22;7658;51.456;7.622;2024-03-25T03:23:51;4.50;99.90
15115;DHT22;7658;51.456;7.622;2024-03-25T03:26:17;4.50;99.90
15115;DHT22;7658;51.456;7.622;2024-03-25T03:28:43;4.50;99.90
15115;DHT22;7658;51.456;7.622;2024-03-25T03:31:09;4.50;99.90
15115;DHT22;7658;51.456;7.622;2024-03-25T03:33:34;4.50;99.90
15115;DHT22;7658;51.456;7.622;2024-03-25T03:36:01;4.50;99.90
15115;DHT22;7658;51.456;7.622;2024-03-25T03:38:27;4.50;99.90
15115;DHT22;7658;51.456;7.622;2024-03-25T03:40:59;4.50;99.90
15115;DHT22;7658;51.456;7.622;2024-03-25T03:43:25;4.50;99.90
15115;DHT22;7658;51.456;7.622;2024-03-25T03:45:51;4.50;99.90
15115;DHT22;7658;51.456;7.622;2024-03-25T03:48:17;4.60;99.90
15115;DHT22;7658;51.456;7.622;2024-03-25T03:50:43;4.60;99.90
15115;DHT22;7658;51.456;7.622;2024-03-25T03:53:09;4.60;99.90
15115;DHT22;7658;51.456;7.622;2024-03-25T03:55:35;4.60;99.90
15115;DHT22;7658;51.456;7.622;2024-03-25T03:58:01;4.60;99.90
15115;DHT22;7658;51.456;7.622;2024-03-25T04:00:27;4.60;99.90
15115;DHT22;7658;51.456;7.622;2024-03-25T04:02:53;4.60;99.90
15115;DHT22;7658;51.456;7.622;2024-03-25T04:05:19;4.60;99.90
15115;DHT22;7658;51.456;7.622;2024-03-25T04:07:46;4.60;99.90
15115;DHT22;7658;51.456;7.622;2024-03-25T04:10:12;4.60;99.90
15115;DHT22;7658;51.456;7.622;2024-03-25T04:12:39;4.60;99.90
15115;DHT22;7658;51.456;7.622;2024-03-25T04:15:06;4.60;99.90
15115;DHT22;7658;51.456;7.622;2024-03-25T04:17:31;4.60;99.90
15115;DHT22;7658;51.456;7.622;2024-03-25T04:20:00;4.60;99.90
15115;DHT22;7658;51.456;7.622;2024-03-25T04:22:26;4.60;99.90
15115;DHT22;7658;51.456;7.622;2024-03-25T04:24:52;4.70;99.90
15115;DHT22;7658;51.456;7.622;2024-03-25T04:27:18;4.70;99.90
15115;DHT22;7658;51.456;7.622;2024-03-25T04:29:46;4.70;99.90
15115;DHT22;7658;51.456;7.622;2024-03-25T04:32:12;4.70;99.90
15115;DHT22;7658;51.456;7.622;2024-03-25T04:34:38;4.70;99.90
15115;DHT22;7658;51.456;7.622;2024-03-25T04:37:03;4.60;99.90
15115;DHT22;7658;51.456;7.622;2024-03-25T04:39:30;4.60;99.90
15115;DHT22;7658;51.456;7.622;2024-03-25T04:41:56;4.60;99.90
15115;DHT22;7658;51.456;7.622;2024-03-25T04:44:22;4.60;99.90
15115;DHT22;7658;51.456;7.622;2024-03-25T04:46:48;4.60;99.90
15115;DHT22;7658;51.456;7.622;2024-03-25T04:49:13;4.60;99.90
15115;DHT22;7658;51.456;7.622;2024-03-25T04:51:39;4.60;99.90
15115;DHT22;7658;51.456;7.622;2024-03-25T04:54:05;4.60;99.90
15115;DHT22;7658;51.456;7.622;2024-03-25T04:56:31;4.60;99.90
15115;DHT22;7658;51.456;7.622;2024-03-25T04:58:57;4.50;99.90
15115;DHT22;7658;51.456;7.622;2024-03-25T05:01:27;4.50;99.90
15115;DHT22;7658;51.456;7.622;2024-03-25T05:03:53;4.60;99.90
15115;DHT22;7658;51.456;7.622;2024-03-25T05:06:19;4.50;99.90
15115;DHT22;7658;51.456;7.622;2024-03-25T05:08:45;4.50;99.90
15115;DHT22;7658;51.456;7.622;2024-03-25T05:11:10;4.40;99.90
15115;DHT22;7658;51.456;7.622;2024-03-25T05:13:36;4.40;99.90
15115;DHT22;7658;51.456;7.622;2024-03-25T05:16:03;4.40;99.90
15115;DHT22;7658;51.456;7.622;2024-03-25T05:18:29;4.40;99.90
15115;DHT22;7658;51.456;7.622;2024-03-25T05:20:54;4.30;99.90
15115;DHT22;7658;51.456;7.622;2024-03-25T05:23:20;4.30;99.90
15115;DHT22;7658;51.456;7.622;2024-03-25T05:25:46;4.30;99.90
15115;DHT22;7658;51.456;7.622;2024-03-25T05:28:12;4.20;99.90
15115;DHT22;7658;51.456;7.622;2024-03-25T05:30:39;4.20;99.90
15115;DHT22;7658;51.456;7.622;2024-03-25T05:33:04;4.20;99.90
15115;DHT22;7658;51.456;7.622;2024-03-25T05:35:30;4.30;99.90
15115;DHT22;7658;51.456;7.622;2024-03-25T05:37:59;4.20;99.90
15115;DHT22;7658;51.456;7.622;2024-03-25T05:40:25;4.30;99.90
15115;DHT22;7658;51.456;7.622;2024-03-25T05:42:51;4.20;99.90
15115;DHT22;7658;51.456;7.622;2024-03-25T05:45:16;4.20;99.90
15115;DHT22;7658;51.456;7.622;2024-03-25T05:47:42;4.20;99.90
15115;DHT22;7658;51.456;7.622;2024-03-25T05:50:08;4.20;99.90
15115;DHT22;7658;51.456;7.622;2024-03-25T05:52:34;4.20;99.90
15115;DHT22;7658;51.456;7.622;2024-03-25T05:55:01;4.20;99.90
15115;DHT22;7658;51.456;7.622;2024-03-25T05:57:27;4.20;99.90
15115;DHT22;7658;51.456;7.622;2024-03-25T05:59:52;4.30;99.90
15115;DHT22;7658;51.456;7.622;2024-03-25T06:02:18;4.30;99.90
15115;DHT22;7658;51.456;7.622;2024-03-25T06:04:44;4.30;99.90
15115;DHT22;7658;51.456;7.622;2024-03-25T06:07:10;4.40;99.90
15115;DHT22;7658;51.456;7.622;2024-03-25T06:09:35;4.30;99.90
15115;DHT22;7658;51.456;7.622;2024-03-25T06:12:01;4.30;99.90
15115;DHT22;7658;51.456;7.622;2024-03-25T06:14:27;4.30;99.90
15115;DHT22;7658;51.456;7.622;2024-03-25T06:16:53;4.30;99.90
15115;DHT22;7658;51.456;7.622;2024-03-25T06:19:18;4.30;99.90
15115;DHT22;7658;51.456;7.622;2024-03-25T06:21:44;4.20;99.90
15115;DHT22;7658;51.456;7.622;2024-03-25T06:24:10;4.30;99.90
15115;DHT22;7658;51.456;7.622;2024-03-25T06:26:37;4.20;99.90
15115;DHT22;7658;51.456;7.622;2024-03-25T06:29:02;4.30;99.90
15115;DHT22;7658;51.456;7.622;2024-03-25T06:31:28;4.40;99.90
15115;DHT22;7658;51.456;7.622;2024-03-25T06:34:12;4.40;99.90
15115;DHT22;7658;51.456;7.622;2024-03-25T06:36:49;4.60;99.90
15115;DHT22;7658;51.456;7.622;2024-03-25T06:39:15;4.70;99.90
15115;DHT22;7658;51.456;7.622;2024-03-25T06:41:41;4.80;99.90
15115;DHT22;7658;51.456;7.622;2024-03-25T06:44:07;4.90;99.90
15115;DHT22;7658;51.456;7.622;2024-03-25T06:46:33;5.00;99.90
15115;DHT22;7658;51.456;7.622;2024-03-25T06:48:59;5.00;99.90
15115;DHT22;7658;51.456;7.622;2024-03-25T06:51:25;5.10;99.90
15115;DHT22;7658;51.456;7.622;2024-03-25T06:53:51;5.10;99.90
15115;DHT22;7658;51.456;7.622;2024-03-25T06:56:17;5.30;99.90
15115;DHT22;7658;51.456;7.622;2024-03-25T06:58:42;5.30;99.90
15115;DHT22;7658;51.456;7.622;2024-03-25T07:01:11;5.40;99.90
15115;DHT22;7658;51.456;7.622;2024-03-25T07:03:40;5.40;99.90
15115;DHT22;7658;51.456;7.622;2024-03-25T07:06:06;5.50;99.90
15115;DHT22;7658;51.456;7.622;2024-03-25T07:08:32;5.50;99.90
15115;DHT22;7658;51.456;7.622;2024-03-25T07:10:58;5.60;99.90
15115;DHT22;7658;51.456;7.622;2024-03-25T07:13:24;5.60;99.90
15115;DHT22;7658;51.456;7.622;2024-03-25T07:15:50;5.70;99.90
15115;DHT22;7658;51.456;7.622;2024-03-25T07:18:16;5.80;99.90
15115;DHT22;7658;51.456;7.622;2024-03-25T07:20:43;5.80;99.90
15115;DHT22;7658;51.456;7.622;2024-03-25T07:23:09;5.70;99.90
15115;DHT22;7658;51.456;7.622;2024-03-25T07:25:36;5.70;99.90
15115;DHT22;7658;51.456;7.622;2024-03-25T07:28:02;5.80;99.90
15115;DHT22;7658;51.456;7.622;2024-03-25T07:30:28;5.90;99.90
15115;DHT22;7658;51.456;7.622;2024-03-25T07:32:58;5.90;99.90
15115;DHT22;7658;51.456;7.622;2024-03-25T07:35:24;6.10;99.90
15115;DHT22;7658;51.456;7.622;2024-03-25T07:37:50;6.20;99.90
15115;DHT22;7658;51.456;7.622;2024-03-25T07:40:17;6.30;99.90
15115;DHT22;7658;51.456;7.622;2024-03-25T07:42:43;6.50;99.90
15115;DHT22;7658;51.456;7.622;2024-03-25T07:45:09;6.60;99.90
15115;DHT22;7658;51.456;7.622;2024-03-25T07:47:35;6.70;99.90
15115;DHT22;7658;51.456;7.622;2024-03-25T07:50:01;6.60;99.90
15115;DHT22;7658;51.456;7.622;2024-03-25T07:52:28;6.60;99.90
15115;DHT22;7658;51.456;7.622;2024-03-25T07:54:54;6.70;99.90
15115;DHT22;7658;51.456;7.622;2024-03-25T07:57:20;6.80;99.90
15115;DHT22;7658;51.456;7.622;2024-03-25T07:59:46;6.80;99.90
15115;DHT22;7658;51.456;7.622;2024-03-25T08:02:12;6.90;99.90
15115;DHT22;7658;51.456;7.622;2024-03-25T08:04:38;7.00;99.90
15115;DHT22;7658;51.456;7.622;2024-03-25T08:07:04;7.20;99.90
15115;DHT22;7658;51.456;7.622;2024-03-25T08:09:31;7.30;99.90
15115;DHT22;7658;51.456;7.622;2024-03-25T08:11:57;7.30;99.90
15115;DHT22;7658;51.456;7.622;2024-03-25T08:14:22;7.30;99.90
15115;DHT22;7658;51.456;7.622;2024-03-25T08:16:48;7.30;1.00
15115;DHT22;7658;51.456;7.622;2024-03-25T08:19:14;7.20;92.50
15115;DHT22;7658;51.456;7.622;2024-03-25T08:21:40;7.20;99.90
15115;DHT22;7658;51.456;7.622;2024-03-25T08:24:06;7.20;99.90
15115;DHT22;7658;51.456;7.622;2024-03-25T08:26:32;7.10;1.00
15115;DHT22;7658;51.456;7.622;2024-03-25T08:28:58;7.10;99.90
15115;DHT22;7658;51.456;7.622;2024-03-25T08:31:24;6.90;1.00
15115;DHT22;7658;51.456;7.622;2024-03-25T08:33:50;7.60;99.90
15115;DHT22;7658;51.456;7.622;2024-03-25T08:36:16;9.00;99.90
15115;DHT22;7658;51.456;7.622;2024-03-25T08:38:42;10.30;99.90
15115;DHT22;7658;51.456;7.622;2024-03-25T08:41:07;10.70;1.00
15115;DHT22;7658;51.456;7.622;2024-03-25T08:43:33;11.10;1.00
15115;DHT22;7658;51.456;7.622;2024-03-25T08:45:59;10.40;99.90
15115;DHT22;7658;51.456;7.622;2024-03-25T08:48:25;9.60;99.90
15115;DHT22;7658;51.456;7.622;2024-03-25T08:50:51;9.10;99.90
15115;DHT22;7658;51.456;7.622;2024-03-25T08:53:17;8.80;1.00
15115;DHT22;7658;51.456;7.622;2024-03-25T08:55:46;8.60;1.00
15115;DHT22;7658;51.456;7.622;2024-03-25T08:58:15;8.30;1.00
15115;DHT22;7658;51.456;7.622;2024-03-25T09:00:42;8.10;1.00
15115;DHT22;7658;51.456;7.622;2024-03-25T09:03:08;7.90;99.90
15115;DHT22;7658;51.456;7.622;2024-03-25T09:05:34;7.70;1.00
15115;DHT22;7658;51.456;7.622;2024-03-25T09:08:00;7.60;99.90
15115;DHT22;7658;51.456;7.622;2024-03-25T09:10:26;7.50;10.80
15115;DHT22;7658;51.456;7.622;2024-03-25T09:13:11;7.50;99.90
15115;DHT22;7658;51.456;7.622;2024-03-25T09:15:37;7.60;1.00
15115;DHT22;7658;51.456;7.622;2024-03-25T09:18:03;7.80;99.90
15115;DHT22;7658;51.456;7.622;2024-03-25T09:20:29;8.20;99.90
15115;DHT22;7658;51.456;7.622;2024-03-25T09:22:54;8.90;1.00
15115;DHT22;7658;51.456;7.622;2024-03-25T09:25:20;9.80;99.90
15115;DHT22;7658;51.456;7.622;2024-03-25T09:27:47;10.40;1.00
15115;DHT22;7658;51.456;7.622;2024-03-25T09:30:13;10.50;1.00
15115;DHT22;7658;51.456;7.622;2024-03-25T09:32:40;10.40;1.00
15115;DHT22;7658;51.456;7.622;2024-03-25T09:35:07;10.10;1.00
15115;DHT22;7658;51.456;7.622;2024-03-25T09:37:33;10.00;1.00
15115;DHT22;7658;51.456;7.622;2024-03-25T09:39:59;10.00;1.00
15115;DHT22;7658;51.456;7.622;2024-03-25T09:42:27;10.00;1.00
15115;DHT22;7658;51.456;7.622;2024-03-25T09:44:56;9.90;1.00
15115;DHT22;7658;51.456;7.622;2024-03-25T09:47:23;9.80;1.00
15115;DHT22;7658;51.456;7.622;2024-03-25T09:49:49;9.50;99.90
15115;DHT22;7658;51.456;7.622;2024-03-25T09:52:17;9.60;99.90
15115;DHT22;7658;51.456;7.622;2024-03-25T09:54:44;9.40;99.90
15115;DHT22;7658;51.456;7.622;2024-03-25T09:57:10;9.50;99.90
15115;DHT22;7658;51.456;7.622;2024-03-25T09:59:36;9.40;99.90
15115;DHT22;7658;51.456;7.622;2024-03-25T10:02:02;9.30;51.30
15115;DHT22;7658;51.456;7.622;2024-03-25T10:04:29;9.40;1.00
15115;DHT22;7658;51.456;7.622;2024-03-25T10:06:55;9.40;99.90
15115;DHT22;7658;51.456;7.622;2024-03-25T10:09:22;9.60;1.00
15115;DHT22;7658;51.456;7.622;2024-03-25T10:11:48;9.60;1.00
15115;DHT22;7658;51.456;7.622;2024-03-25T10:14:18;9.80;1.00
15115;DHT22;7658;51.456;7.622;2024-03-25T10:16:48;9.80;1.00
15115;DHT22;7658;51.456;7.622;2024-03-25T10:19:14;9.90;1.00
15115;DHT22;7658;51.456;7.622;2024-03-25T10:21:40;9.90;1.00
15115;DHT22;7658;51.456;7.622;2024-03-25T10:24:06;9.40;1.00
15115;DHT22;7658;51.456;7.622;2024-03-25T10:26:33;8.90;1.00
15115;DHT22;7658;51.456;7.622;2024-03-25T10:31:26;8.90;1.00
15115;DHT22;7658;51.456;7.622;2024-03-25T10:33:53;9.20;1.00
15115;DHT22;7658;51.456;7.622;2024-03-25T10:36:20;9.50;1.00
15115;DHT22;7658;51.456;7.622;2024-03-25T10:38:49;9.80;1.00
15115;DHT22;7658;51.456;7.622;2024-03-25T10:41:17;9.90;1.00
15115;DHT22;7658;51.456;7.622;2024-03-25T10:43:46;10.30;1.00
15115;DHT22;7658;51.456;7.622;2024-03-25T10:46:18;10.50;1.00
15115;DHT22;7658;51.456;7.622;2024-03-25T10:48:59;10.70;1.00
15115;DHT22;7658;51.456;7.622;2024-03-25T10:51:27;11.00;1.00
15115;DHT22;7658;51.456;7.622;2024-03-25T10:53:55;11.30;1.00
15115;DHT22;7658;51.456;7.622;2024-03-25T10:56:22;11.40;1.00
15115;DHT22;7658;51.456;7.622;2024-03-25T10:58:50;11.30;1.00
15115;DHT22;7658;51.456;7.622;2024-03-25T11:01:17;11.60;1.00
15115;DHT22;7658;51.456;7.622;2024-03-25T11:03:47;11.20;1.00
15115;DHT22;7658;51.456;7.622;2024-03-25T11:06:14;10.90;1.00
15115;DHT22;7658;51.456;7.622;2024-03-25T11:08:40;10.90;1.00
15115;DHT22;7658;51.456;7.622;2024-03-25T11:11:07;10.90;1.00
15115;DHT22;7658;51.456;7.622;2024-03-25T11:13:33;11.10;1.00
15115;DHT22;7658;51.456;7.622;2024-03-25T11:15:59;11.20;1.00
15115;DHT22;7658;51.456;7.622;2024-03-25T11:18:26;11.50;1.00
15115;DHT22;7658;51.456;7.622;2024-03-25T11:21:07;11.50;1.00
15115;DHT22;7658;51.456;7.622;2024-03-25T11:23:46;11.50;1.00
15115;DHT22;7658;51.456;7.622;2024-03-25T11:26:24;11.60;1.00
15115;DHT22;7658;51.456;7.622;2024-03-25T11:28:50;11.60;1.00
15115;DHT22;7658;51.456;7.622;2024-03-25T11:31:17;11.70;1.00
15115;DHT22;7658;51.456;7.622;2024-03-25T11:33:44;12.00;1.00
15115;DHT22;7658;51.456;7.622;2024-03-25T11:36:10;11.80;1.00
15115;DHT22;7658;51.456;7.622;2024-03-25T11:38:37;11.70;1.00
15115;DHT22;7658;51.456;7.622;2024-03-25T11:41:06;11.60;1.00
15115;DHT22;7658;51.456;7.622;2024-03-25T11:43:32;11.60;1.00
15115;DHT22;7658;51.456;7.622;2024-03-25T11:45:58;11.90;1.00
15115;DHT22;7658;51.456;7.622;2024-03-25T11:48:24;11.90;1.00
15115;DHT22;7658;51.456;7.622;2024-03-25T11:50:50;11.70;1.00
15115;DHT22;7658;51.456;7.622;2024-03-25T11:53:16;12.20;1.00
15115;DHT22;7658;51.456;7.622;2024-03-25T11:55:46;12.60;1.00
15115;DHT22;7658;51.456;7.622;2024-03-25T11:58:12;13.00;1.00
15115;DHT22;7658;51.456;7.622;2024-03-25T12:00:47;13.20;1.00
15115;DHT22;7658;51.456;7.622;2024-03-25T12:03:22;12.80;1.00
15115;DHT22;7658;51.456;7.622;2024-03-25T12:05:48;12.90;1.00
15115;DHT22;7658;51.456;7.622;2024-03-25T12:08:14;12.90;1.00
15115;DHT22;7658;51.456;7.622;2024-03-25T12:10:39;13.20;1.00
15115;DHT22;7658;51.456;7.622;2024-03-25T12:13:25;13.30;1.00
15115;DHT22;7658;51.456;7.622;2024-03-25T12:15:53;13.70;1.00
15115;DHT22;7658;51.456;7.622;2024-03-25T12:18:20;13.90;1.00
15115;DHT22;7658;51.456;7.622;2024-03-25T12:20:45;13.60;1.00
15115;DHT22;7658;51.456;7.622;2024-03-25T12:23:11;13.80;1.00
15115;DHT22;7658;51.456;7.622;2024-03-25T12:25:37;14.00;1.00
15115;DHT22;7658;51.456;7.622;2024-03-25T12:28:08;13.90;1.00
15115;DHT22;7658;51.456;7.622;2024-03-25T12:30:48;13.70;1.00
15115;DHT22;7658;51.456;7.622;2024-03-25T12:33:15;13.50;1.00
15115;DHT22;7658;51.456;7.622;2024-03-25T12:35:41;13.50;1.00
15115;DHT22;7658;51.456;7.622;2024-03-25T12:38:07;14.00;1.00
15115;DHT22;7658;51.456;7.622;2024-03-25T12:40:33;14.70;1.00
15115;DHT22;7658;51.456;7.622;2024-03-25T12:42:59;15.10;1.00
15115;DHT22;7658;51.456;7.622;2024-03-25T12:45:25;15.40;1.00
15115;DHT22;7658;51.456;7.622;2024-03-25T12:47:51;16.10;1.00
15115;DHT22;7658;51.456;7.622;2024-03-25T12:50:17;16.50;1.00
15115;DHT22;7658;51.456;7.622;2024-03-25T12:52:44;16.70;1.00
15115;DHT22;7658;51.456;7.622;2024-03-25T12:55:10;16.60;1.00
15115;DHT22;7658;51.456;7.622;2024-03-25T12:57:36;16.60;1.00
15115;DHT22;7658;51.456;7.622;2024-03-25T13:00:02;16.00;1.00
15115;DHT22;7658;51.456;7.622;2024-03-25T13:02:30;15.40;1.00
15115;DHT22;7658;51.456;7.622;2024-03-25T13:04:56;15.40;1.00
15115;DHT22;7658;51.456;7.622;2024-03-25T13:07:22;15.70;1.00
15115;DHT22;7658;51.456;7.622;2024-03-25T13:09:48;16.20;1.00
15115;DHT22;7658;51.456;7.622;2024-03-25T13:12:14;16.50;1.00
15115;DHT22;7658;51.456;7.622;2024-03-25T13:14:39;17.00;1.00
15115;DHT22;7658;51.456;7.622;2024-03-25T13:17:05;17.00;1.00
15115;DHT22;7658;51.456;7.622;2024-03-25T13:19:31;16.70;1.00
15115;DHT22;7658;51.456;7.622;2024-03-25T13:21:57;17.00;1.00
15115;DHT22;7658;51.456;7.622;2024-03-25T13:24:23;17.20;1.00
15115;DHT22;7658;51.456;7.622;2024-03-25T13:26:48;17.70;1.00
15115;DHT22;7658;51.456;7.622;2024-03-25T13:29:14;17.60;1.00
15115;DHT22;7658;51.456;7.622;2024-03-25T13:31:40;17.20;1.00
15115;DHT22;7658;51.456;7.622;2024-03-25T13:34:06;17.40;1.00
15115;DHT22;7658;51.456;7.622;2024-03-25T13:36:32;17.60;1.00
15115;DHT22;7658;51.456;7.622;2024-03-25T13:38:57;18.00;1.00
15115;DHT22;7658;51.456;7.622;2024-03-25T13:41:23;18.20;1.00
15115;DHT22;7658;51.456;7.622;2024-03-25T13:43:50;18.40;1.00
15115;DHT22;7658;51.456;7.622;2024-03-25T13:46:16;18.70;1.00
15115;DHT22;7658;51.456;7.622;2024-03-25T13:48:42;18.60;1.00
15115;DHT22;7658;51.456;7.622;2024-03-25T13:51:08;19.00;1.00
15115;DHT22;7658;51.456;7.622;2024-03-25T13:53:34;18.50;1.00
15115;DHT22;7658;51.456;7.622;2024-03-25T13:56:00;17.20;1.00
15115;DHT22;7658;51.456;7.622;2024-03-25T13:58:26;17.00;1.00
15115;DHT22;7658;51.456;7.622;2024-03-25T14:00:52;16.90;1.00
15115;DHT22;7658;51.456;7.622;2024-03-25T14:03:18;16.20;1.00
15115;DHT22;7658;51.456;7.622;2024-03-25T14:05:46;15.30;1.00
15115;DHT22;7658;51.456;7.622;2024-03-25T14:08:11;15.00;1.00
15115;DHT22;7658;51.456;7.622;2024-03-25T14:10:37;14.30;1.00
15115;DHT22;7658;51.456;7.622;2024-03-25T14:13:03;13.80;1.00
15115;DHT22;7658;51.456;7.622;2024-03-25T14:15:31;13.30;1.00
15115;DHT22;7658;51.456;7.622;2024-03-25T14:17:57;13.00;1.00
15115;DHT22;7658;51.456;7.622;2024-03-25T14:20:22;12.80;1.00
15115;DHT22;7658;51.456;7.622;2024-03-25T14:22:48;12.60;1.00
15115;DHT22;7658;51.456;7.622;2024-03-25T14:25:14;12.50;1.00
15115;DHT22;7658;51.456;7.622;2024-03-25T14:27:41;12.40;1.00
15115;DHT22;7658;51.456;7.622;2024-03-25T14:30:07;12.40;1.00
15115;DHT22;7658;51.456;7.622;2024-03-25T14:32:35;12.60;1.00
15115;DHT22;7658;51.456;7.622;2024-03-25T14:35:01;12.60;1.00
15115;DHT22;7658;51.456;7.622;2024-03-25T14:37:27;12.90;1.00
15115;DHT22;7658;51.456;7.622;2024-03-25T14:39:53;13.00;1.00
15115;DHT22;7658;51.456;7.622;2024-03-25T14:42:19;13.20;1.00
15115;DHT22;7658;51.456;7.622;2024-03-25T14:44:45;13.60;1.00
15115;DHT22;7658;51.456;7.622;2024-03-25T14:47:10;14.10;1.00
15115;DHT22;7658;51.456;7.622;2024-03-25T14:49:36;14.50;1.00
15115;DHT22;7658;51.456;7.622;2024-03-25T14:52:02;14.80;1.00
15115;DHT22;7658;51.456;7.622;2024-03-25T14:54:36;15.00;1.00
15115;DHT22;7658;51.456;7.622;2024-03-25T14:57:02;15.10;1.00
15115;DHT22;7658;51.456;7.622;2024-03-25T14:59:28;15.30;1.00
15115;DHT22;7658;51.456;7.622;2024-03-25T15:01:59;15.20;1.00
15115;DHT22;7658;51.456;7.622;2024-03-25T15:04:25;15.00;1.00
15115;DHT22;7658;51.456;7.622;2024-03-25T15:06:51;15.10;1.00
15115;DHT22;7658;51.456;7.622;2024-03-25T15:09:17;15.20;1.00
15115;DHT22;7658;51.456;7.622;2024-03-25T15:11:43;15.30;1.00
15115;DHT22;7658;51.456;7.622;2024-03-25T15:14:08;15.30;1.00
15115;DHT22;7658;51.456;7.622;2024-03-25T15:16:34;15.40;1.00
15115;DHT22;7658;51.456;7.622;2024-03-25T15:19:00;15.30;1.00
15115;DHT22;7658;51.456;7.622;2024-03-25T15:21:26;14.90;1.00
15115;DHT22;7658;51.456;7.622;2024-03-25T15:23:52;14.70;1.00
15115;DHT22;7658;51.456;7.622;2024-03-25T15:26:17;14.60;1.00
15115;DHT22;7658;51.456;7.622;2024-03-25T15:28:43;14.40;1.00
15115;DHT22;7658;51.456;7.622;2024-03-25T15:31:09;14.10;1.00
15115;DHT22;7658;51.456;7.622;2024-03-25T15:33:34;14.00;1.00
15115;DHT22;7658;51.456;7.622;2024-03-25T15:36:00;13.80;1.00
15115;DHT22;7658;51.456;7.622;2024-03-25T15:38:27;13.60;1.00
15115;DHT22;7658;51.456;7.622;2024-03-25T15:40:52;13.30;1.00
15115;DHT22;7658;51.456;7.622;2024-03-25T15:43:19;13.20;1.00
15115;DHT22;7658;51.456;7.622;2024-03-25T15:45:58;13.00;1.00
15115;DHT22;7658;51.456;7.622;2024-03-25T15:48:25;12.90;1.00
15115;DHT22;7658;51.456;7.622;2024-03-25T15:50:50;12.70;1.00
15115;DHT22;7658;51.456;7.622;2024-03-25T15:53:16;12.70;1.00
15115;DHT22;7658;51.456;7.622;2024-03-25T15:55:42;12.50;1.00
15115;DHT22;7658;51.456;7.622;2024-03-25T15:58:12;12.40;1.00
15115;DHT22;7658;51.456;7.622;2024-03-25T16:00:38;12.20;1.00
15115;DHT22;7658;51.456;7.622;2024-03-25T16:03:04;12.20;1.00